Vivien A — TCYC4 — position and weather

sailwx.info

Track history (hours):
 
Tides and Currents Weather Stations Pressure Air Temp Water Temp Dewpoint Dewpoint Depression Visibility Wind Speed Wind Dir Waves Ship Positions

Vivien A

Last reported at 2015-Jan-31 00:32 UTC. Time now 2015-Jan-31 00:51 UTC.
Position N 36°08' W 005°26'.

Length 210 m; draft 8.3 m.

Type: Ship (hazmat cat A). MMSI: 271040635.

Date/timePositionNaut miles runAvg speedWind from/ knotsBaromVisibWave heightAir tempDewpointWater temp
2015-Jan-31 00:32N 36°08' W 005°26'0 0.0
2015-Jan-30 23:29N 36°08' W 005°26'2 1.5
2015-Jan-30 22:20N 36°09' W 005°24'5 5.9
2015-Jan-30 21:29N 36°04' W 005°22'10 9.7
2015-Jan-30 20:29N 35°57' W 005°30'221 5.5
2015-Jan-29 04:26N 37°41' W 009°34'2111.4
2015-Jan-29 02:33N 38°02' W 009°30'1211.8
2015-Jan-29 01:33N 38°14' W 009°28'1111.3
2015-Jan-29 00:33N 38°25' W 009°26'1111.1
2015-Jan-28 23:33N 38°36' W 009°24'1110.1
2015-Jan-28 22:30N 38°41' W 009°12'2 1.6
2015-Jan-28 21:33N 38°42' W 009°10'0 0.0
2015-Jan-28 20:33N 38°42' W 009°10'0 0.0
2015-Jan-28 19:33N 38°42' W 009°10'0 0.0
2015-Jan-28 18:24N 38°42' W 009°10'0 0.0
2015-Jan-28 17:33N 38°42' W 009°10'0 0.0
2015-Jan-28 16:33N 38°42' W 009°10'0 0.0
2015-Jan-28 15:33N 38°42' W 009°10'1 0.6
2015-Jan-28 14:33N 38°41' W 009°10'10 9.6
2015-Jan-28 13:33N 38°38' W 009°22'1212.1
2015-Jan-28 12:33N 38°26' W 009°25'1 0.8
2015-Jan-28 11:19N 38°25' W 009°25'1 1.0
2015-Jan-28 10:28N 38°26' W 009°25'1 1.2
2015-Jan-28 09:31N 38°27' W 009°25'2 1.8
2015-Jan-28 08:31N 38°29' W 009°26'1 1.3
2015-Jan-28 07:33N 38°28' W 009°26'1010.2
2015-Jan-28 06:33N 38°18' W 009°23'4 3.9
2015-Jan-28 05:33N 38°14' W 009°22'1 1.1
2015-Jan-28 04:33N 38°15' W 009°22'1 1.5
2015-Jan-28 03:33N 38°16' W 009°22'2 1.7
2015-Jan-28 02:33N 38°18' W 009°23'1 1.4
2015-Jan-28 01:33N 38°19' W 009°23'1 1.2
2015-Jan-28 00:33N 38°20' W 009°24'1 1.1
2015-Jan-27 23:30N 38°21' W 009°25'1 1.4
2015-Jan-27 22:33N 38°23' W 009°25'2 1.6
2015-Jan-27 21:33N 38°24' W 009°26'2 1.7
2015-Jan-27 20:33N 38°26' W 009°27'2 1.7
2015-Jan-27 19:30N 38°27' W 009°28'2 1.8
2015-Jan-27 18:32N 38°29' W 009°28'4 4.3
2015-Jan-27 17:33N 38°26' W 009°33'2 2.3
2015-Jan-27 16:32N 38°25' W 009°35'2 2.1
2015-Jan-27 15:29N 38°28' W 009°36'2 2.0
2015-Jan-27 14:29N 38°30' W 009°36'2 2.0
2015-Jan-27 13:33N 38°31' W 009°35'8 7.8
2015-Jan-27 12:33N 38°37' W 009°29'3 3.2
2015-Jan-27 11:33N 38°39' W 009°25'1 1.0
2015-Jan-27 10:33N 38°40' W 009°26'9 9.4
2015-Jan-27 09:33N 38°37' W 009°37'9 9.5
2015-Jan-27 08:33N 38°35' W 009°49'10 9.6
2015-Jan-27 07:33N 38°34' W 010°01'10 9.2
2015-Jan-27 06:31N 38°40' W 010°10'1111.7
2015-Jan-27 05:33N 38°51' W 010°11'2511.5
2015-Jan-27 03:24N 39°14' W 009°59'8 0.2
2015-Jan-25 09:10N 39°17' W 009°49'610.4
2015-Jan-25 08:33N 39°11' W 009°50'1010.2
2015-Jan-25 07:33N 39°00' W 009°50'1110.3
2015-Jan-25 06:32N 38°50' W 009°51'1010.7
2015-Jan-25 05:33N 38°39' W 009°49'1110.6
2015-Jan-25 04:33N 38°29' W 009°46'1110.6
2015-Jan-25 03:33N 38°19' W 009°43'1010.5
2015-Jan-25 02:33N 38°09' W 009°40'1110.5
2015-Jan-25 01:32N 37°58' W 009°38'1010.4
2015-Jan-25 00:33N 37°48' W 009°35'1010.2
2015-Jan-24 23:33N 37°38' W 009°32'1010.0
2015-Jan-24 22:33N 37°28' W 009°29'1010.3
2015-Jan-24 21:33N 37°18' W 009°27'50 9.4
2015-Jan-24 16:15N 36°40' W 008°47'16411.1
2015-Jan-24 01:30N 35°59' W 005°30'8 8.4
2015-Jan-24 00:33N 36°05' W 005°24'4 3.9
2015-Jan-23 23:31N 36°09' W 005°26'0 0.0
2015-Jan-23 22:25N 36°09' W 005°26'0 0.0
2015-Jan-23 19:28N 36°09' W 005°26'0 0.0
2015-Jan-23 18:31N 36°09' W 005°26'0 0.0
2015-Jan-23 17:34N 36°09' W 005°26'0 0.0
2015-Jan-23 14:31N 36°09' W 005°26'0 0.0
2015-Jan-23 13:25N 36°09' W 005°26'0 0.0
2015-Jan-23 10:28N 36°09' W 005°26'0 0.0
2015-Jan-23 07:31N 36°09' W 005°26'0 0.0
2015-Jan-23 06:31N 36°09' W 005°26'0 0.0
2015-Jan-23 05:25N 36°09' W 005°26'0 0.0
2015-Jan-23 04:31N 36°09' W 005°26'0 0.0
2015-Jan-23 00:07N 36°09' W 005°26'0 0.0
2015-Jan-22 23:25N 36°09' W 005°26'0 0.0
2015-Jan-22 22:31N 36°09' W 005°26'4 4.5
2015-Jan-22 21:33N 36°05' W 005°23'  
Track history (hours):
 
Tides and Currents Weather Stations Pressure Air Temp Water Temp Dewpoint Dewpoint Depression Visibility Wind Speed Wind Dir Waves Ship Positions

Vivien A

Last reported at 2015-Jan-31 00:32 UTC. Time now 2015-Jan-31 00:51 UTC.
Position N 36°08' W 005°26'.

Length 210 m; draft 8.3 m.

Type: Ship (hazmat cat A). MMSI: 271040635.

Date/timePositionNaut miles runAvg speedWind from/ knotsBaromVisibWave heightAir tempDewpointWater temp
2015-Jan-31 00:32N 36°08' W 005°26'0 0.0
2015-Jan-30 23:29N 36°08' W 005°26'2 1.5
2015-Jan-30 22:20N 36°09' W 005°24'5 5.9
2015-Jan-30 21:29N 36°04' W 005°22'10 9.7
2015-Jan-30 20:29N 35°57' W 005°30'221 5.5
2015-Jan-29 04:26N 37°41' W 009°34'2111.4
2015-Jan-29 02:33N 38°02' W 009°30'1211.8
2015-Jan-29 01:33N 38°14' W 009°28'1111.3
2015-Jan-29 00:33N 38°25' W 009°26'1111.1
2015-Jan-28 23:33N 38°36' W 009°24'1110.1
2015-Jan-28 22:30N 38°41' W 009°12'2 1.6
2015-Jan-28 21:33N 38°42' W 009°10'0 0.0
2015-Jan-28 20:33N 38°42' W 009°10'0 0.0
2015-Jan-28 19:33N 38°42' W 009°10'0 0.0
2015-Jan-28 18:24N 38°42' W 009°10'0 0.0
2015-Jan-28 17:33N 38°42' W 009°10'0 0.0
2015-Jan-28 16:33N 38°42' W 009°10'0 0.0
2015-Jan-28 15:33N 38°42' W 009°10'1 0.6
2015-Jan-28 14:33N 38°41' W 009°10'10 9.6
2015-Jan-28 13:33N 38°38' W 009°22'1212.1
2015-Jan-28 12:33N 38°26' W 009°25'1 0.8
2015-Jan-28 11:19N 38°25' W 009°25'1 1.0
2015-Jan-28 10:28N 38°26' W 009°25'1 1.2
2015-Jan-28 09:31N 38°27' W 009°25'2 1.8
2015-Jan-28 08:31N 38°29' W 009°26'1 1.3
2015-Jan-28 07:33N 38°28' W 009°26'1010.2
2015-Jan-28 06:33N 38°18' W 009°23'4 3.9
2015-Jan-28 05:33N 38°14' W 009°22'1 1.1
2015-Jan-28 04:33N 38°15' W 009°22'1 1.5
2015-Jan-28 03:33N 38°16' W 009°22'2 1.7
2015-Jan-28 02:33N 38°18' W 009°23'1 1.4
2015-Jan-28 01:33N 38°19' W 009°23'1 1.2
2015-Jan-28 00:33N 38°20' W 009°24'1 1.1
2015-Jan-27 23:30N 38°21' W 009°25'1 1.4
2015-Jan-27 22:33N 38°23' W 009°25'2 1.6
2015-Jan-27 21:33N 38°24' W 009°26'2 1.7
2015-Jan-27 20:33N 38°26' W 009°27'2 1.7
2015-Jan-27 19:30N 38°27' W 009°28'2 1.8
2015-Jan-27 18:32N 38°29' W 009°28'4 4.3
2015-Jan-27 17:33N 38°26' W 009°33'2 2.3
2015-Jan-27 16:32N 38°25' W 009°35'2 2.1
2015-Jan-27 15:29N 38°28' W 009°36'2 2.0
2015-Jan-27 14:29N 38°30' W 009°36'2 2.0
2015-Jan-27 13:33N 38°31' W 009°35'8 7.8
2015-Jan-27 12:33N 38°37' W 009°29'3 3.2
2015-Jan-27 11:33N 38°39' W 009°25'1 1.0
2015-Jan-27 10:33N 38°40' W 009°26'9 9.4
2015-Jan-27 09:33N 38°37' W 009°37'9 9.5
2015-Jan-27 08:33N 38°35' W 009°49'10 9.6
2015-Jan-27 07:33N 38°34' W 010°01'10 9.2
2015-Jan-27 06:31N 38°40' W 010°10'1111.7
2015-Jan-27 05:33N 38°51' W 010°11'2511.5
2015-Jan-27 03:24N 39°14' W 009°59'8 0.2
2015-Jan-25 09:10N 39°17' W 009°49'610.4
2015-Jan-25 08:33N 39°11' W 009°50'1010.2
2015-Jan-25 07:33N 39°00' W 009°50'1110.3
2015-Jan-25 06:32N 38°50' W 009°51'1010.7
2015-Jan-25 05:33N 38°39' W 009°49'1110.6
2015-Jan-25 04:33N 38°29' W 009°46'1110.6
2015-Jan-25 03:33N 38°19' W 009°43'1010.5
2015-Jan-25 02:33N 38°09' W 009°40'1110.5
2015-Jan-25 01:32N 37°58' W 009°38'1010.4
2015-Jan-25 00:33N 37°48' W 009°35'1010.2
2015-Jan-24 23:33N 37°38' W 009°32'1010.0
2015-Jan-24 22:33N 37°28' W 009°29'1010.3
2015-Jan-24 21:33N 37°18' W 009°27'50 9.4
2015-Jan-24 16:15N 36°40' W 008°47'16411.1
2015-Jan-24 01:30N 35°59' W 005°30'8 8.4
2015-Jan-24 00:33N 36°05' W 005°24'4 3.9
2015-Jan-23 23:31N 36°09' W 005°26'0 0.0
2015-Jan-23 22:25N 36°09' W 005°26'0 0.0
2015-Jan-23 19:28N 36°09' W 005°26'0 0.0
2015-Jan-23 18:31N 36°09' W 005°26'0 0.0
2015-Jan-23 17:34N 36°09' W 005°26'0 0.0
2015-Jan-23 14:31N 36°09' W 005°26'0 0.0
2015-Jan-23 13:25N 36°09' W 005°26'0 0.0
2015-Jan-23 10:28N 36°09' W 005°26'0 0.0
2015-Jan-23 07:31N 36°09' W 005°26'0 0.0
2015-Jan-23 06:31N 36°09' W 005°26'0 0.0
2015-Jan-23 05:25N 36°09' W 005°26'0 0.0
2015-Jan-23 04:31N 36°09' W 005°26'0 0.0
2015-Jan-23 00:07N 36°09' W 005°26'0 0.0
2015-Jan-22 23:25N 36°09' W 005°26'0 0.0
2015-Jan-22 22:31N 36°09' W 005°26'4 4.5
2015-Jan-22 21:33N 36°05' W 005°23'  

Dump ship's entire track history